createdAt,value
2023-01-30T00:01:18.613Z,-2.90
2023-01-30T00:03:47.808Z,-3.00
2023-01-30T00:06:15.052Z,-3.10
2023-01-30T00:08:41.652Z,-3.10
2023-01-30T00:11:09.541Z,-3.20
2023-01-30T00:13:36.720Z,-3.30
2023-01-30T00:16:03.510Z,-3.30
2023-01-30T00:18:30.403Z,-3.30
2023-01-30T00:21:01.708Z,-3.20
2023-01-30T00:23:28.832Z,-3.20
2023-01-30T00:25:55.735Z,-3.30
2023-01-30T00:28:22.635Z,-3.30
2023-01-30T00:30:51.555Z,-3.30
2023-01-30T00:33:19.244Z,-3.30
2023-01-30T00:35:46.925Z,-3.20
2023-01-30T00:38:16.466Z,-3.20
2023-01-30T00:40:43.624Z,-3.30
2023-01-30T00:43:32.682Z,-3.30
2023-01-30T00:46:18.378Z,-3.30
2023-01-30T00:48:44.962Z,-3.30
2023-01-30T00:51:14.191Z,-3.30
2023-01-30T00:53:40.804Z,-3.40
2023-01-30T00:56:07.754Z,-3.40
2023-01-30T00:58:34.368Z,-3.50
2023-01-30T01:01:01.029Z,-3.60
2023-01-30T01:03:27.657Z,-3.60
2023-01-30T01:05:57.101Z,-3.50
2023-01-30T01:08:23.899Z,-3.50
2023-01-30T01:10:55.189Z,-3.60
2023-01-30T01:13:21.986Z,-3.40
2023-01-30T01:15:52.306Z,-3.40
2023-01-30T01:18:21.548Z,-3.40
2023-01-30T01:20:50.723Z,-3.40
2023-01-30T01:23:19.710Z,-3.30
2023-01-30T01:25:46.346Z,-3.40
2023-01-30T01:28:13.021Z,-3.40
2023-01-30T01:30:39.682Z,-3.40
2023-01-30T01:33:06.297Z,-3.40
2023-01-30T01:35:33.042Z,-3.30
2023-01-30T01:37:59.631Z,-3.30
2023-01-30T01:40:44.809Z,-3.30
2023-01-30T01:43:24.513Z,-3.20
2023-01-30T01:45:58.726Z,-3.30
2023-01-30T01:48:27.793Z,-3.30
2023-01-30T01:51:08.523Z,-3.20
2023-01-30T01:53:38.375Z,-3.20
2023-01-30T01:56:05.526Z,-3.10
2023-01-30T01:58:35.600Z,-3.10
2023-01-30T02:01:05.698Z,-3.20
2023-01-30T02:03:39.849Z,-3.20
2023-01-30T02:06:10.164Z,-3.20
2023-01-30T02:08:41.028Z,-3.10
2023-01-30T02:11:12.772Z,-3.10
2023-01-30T02:13:39.456Z,-2.90
2023-01-30T02:16:07.183Z,-2.80
2023-01-30T02:18:35.501Z,-2.80
2023-01-30T02:21:20.892Z,-2.60
2023-01-30T02:23:47.470Z,-2.50
2023-01-30T02:26:33.050Z,-2.50
2023-01-30T02:29:17.968Z,-2.60
2023-01-30T02:32:07.937Z,-2.70
2023-01-30T02:34:39.328Z,-2.60
2023-01-30T02:37:17.358Z,-2.40
2023-01-30T02:39:53.820Z,-2.40
2023-01-30T02:42:20.521Z,-2.30
2023-01-30T02:44:52.775Z,-2.30
2023-01-30T02:47:24.279Z,-2.40
2023-01-30T02:49:53.937Z,-2.30
2023-01-30T02:52:22.395Z,-2.40
2023-01-30T02:54:48.957Z,-2.40
2023-01-30T02:57:21.590Z,-2.40
2023-01-30T02:59:54.114Z,-2.50
2023-01-30T03:02:23.138Z,-2.50
2023-01-30T03:05:07.912Z,-2.50
2023-01-30T03:07:40.656Z,-2.60
2023-01-30T03:10:10.248Z,-2.60
2023-01-30T03:12:49.327Z,-2.60
2023-01-30T03:15:38.683Z,-2.50
2023-01-30T03:18:07.994Z,-2.40
2023-01-30T03:20:38.544Z,-2.30
2023-01-30T03:23:07.508Z,-2.30
2023-01-30T03:25:35.866Z,-2.20
2023-01-30T03:28:03.868Z,-2.20
2023-01-30T03:30:32.656Z,-2.00
2023-01-30T03:32:59.278Z,-2.00
2023-01-30T03:35:25.848Z,-1.90
2023-01-30T03:37:54.991Z,-1.90
2023-01-30T03:40:21.682Z,-1.80
2023-01-30T03:42:48.259Z,-1.80
2023-01-30T03:45:17.530Z,-1.90
2023-01-30T03:47:49.355Z,-2.00
2023-01-30T03:50:16.103Z,-1.80
2023-01-30T03:52:42.729Z,-1.60
2023-01-30T03:55:09.942Z,-1.50
2023-01-30T03:57:38.769Z,-1.50
2023-01-30T04:00:05.556Z,-1.60
2023-01-30T04:02:32.408Z,-1.70
2023-01-30T04:05:03.990Z,-1.70
2023-01-30T04:07:30.660Z,-1.70
2023-01-30T04:09:59.653Z,-1.60
2023-01-30T04:12:26.278Z,-1.60
2023-01-30T04:14:52.948Z,-1.50
2023-01-30T04:17:22.090Z,-1.50
2023-01-30T04:19:48.677Z,-1.40
2023-01-30T04:22:17.822Z,-1.40
2023-01-30T04:24:44.446Z,-1.30
2023-01-30T04:27:13.490Z,-1.10
2023-01-30T04:29:40.119Z,-0.90
2023-01-30T04:32:06.738Z,-0.70
2023-01-30T04:34:33.478Z,-0.60
2023-01-30T04:37:02.184Z,-0.60
2023-01-30T04:39:31.283Z,-0.70
2023-01-30T04:42:00.311Z,-0.70
2023-01-30T04:44:26.881Z,-0.70
2023-01-30T04:46:54.073Z,-0.70
2023-01-30T04:49:20.762Z,-0.70
2023-01-30T04:51:47.433Z,-0.70
2023-01-30T04:54:14.102Z,-0.70
2023-01-30T04:56:43.123Z,-0.60
2023-01-30T04:59:12.148Z,-0.60
2023-01-30T05:01:41.286Z,-0.50
2023-01-30T05:04:08.448Z,-0.50
2023-01-30T05:06:35.632Z,-0.50
2023-01-30T05:09:02.789Z,-0.40
2023-01-30T05:11:32.359Z,-0.40
2023-01-30T05:14:01.435Z,-0.30
2023-01-30T05:16:30.340Z,-0.10
2023-01-30T05:18:59.323Z,0.00
2023-01-30T05:21:27.918Z,0.30
2023-01-30T05:23:58.278Z,0.40
2023-01-30T05:26:27.619Z,0.50
2023-01-30T05:28:55.440Z,0.50
2023-01-30T05:31:22.697Z,0.50
2023-01-30T05:33:52.571Z,0.50
2023-01-30T05:36:22.777Z,0.70
2023-01-30T05:38:51.888Z,0.70
2023-01-30T05:41:18.700Z,0.60
2023-01-30T05:43:48.959Z,0.70
2023-01-30T05:46:15.607Z,0.70
2023-01-30T05:48:42.278Z,0.80
2023-01-30T05:51:25.419Z,0.80
2023-01-30T05:53:52.425Z,0.90
2023-01-30T05:56:21.953Z,0.80
2023-01-30T05:58:52.738Z,0.70
2023-01-30T06:01:19.691Z,0.60
2023-01-30T06:03:48.776Z,0.60
2023-01-30T06:06:15.471Z,0.70
2023-01-30T06:08:44.742Z,0.70
2023-01-30T06:11:13.289Z,0.70
2023-01-30T06:13:40.302Z,0.80
2023-01-30T06:16:09.941Z,0.80
2023-01-30T06:18:36.614Z,0.80
2023-01-30T06:21:03.364Z,0.80
2023-01-30T06:23:30.051Z,0.70
2023-01-30T06:25:56.720Z,0.80
2023-01-30T06:28:23.817Z,0.80
2023-01-30T06:30:50.716Z,0.80
2023-01-30T06:33:17.509Z,0.70
2023-01-30T06:35:46.805Z,0.70
2023-01-30T06:38:18.406Z,0.70
2023-01-30T06:40:45.768Z,0.70
2023-01-30T06:43:12.671Z,0.70
2023-01-30T06:45:39.224Z,0.70
2023-01-30T06:48:06.075Z,0.70
2023-01-30T06:50:37.413Z,0.90
2023-01-30T06:53:07.507Z,0.90
2023-01-30T06:55:35.531Z,1.00
2023-01-30T06:58:04.618Z,1.00
2023-01-30T07:00:31.505Z,1.00
2023-01-30T07:02:58.481Z,1.00
2023-01-30T07:05:30.128Z,1.00
2023-01-30T07:07:56.842Z,1.00
2023-01-30T07:10:23.944Z,1.00
2023-01-30T07:12:50.571Z,1.00
2023-01-30T07:15:19.930Z,1.20
2023-01-30T07:17:51.548Z,1.30
2023-01-30T07:20:18.203Z,1.30
2023-01-30T07:22:54.923Z,1.20
2023-01-30T07:25:22.369Z,1.30
2023-01-30T07:27:54.643Z,1.30
2023-01-30T07:30:24.180Z,1.60
2023-01-30T07:32:57.808Z,1.70
2023-01-30T07:35:27.847Z,1.70
2023-01-30T07:37:54.602Z,1.70
2023-01-30T07:40:21.848Z,1.80
2023-01-30T07:42:58.964Z,1.80
2023-01-30T07:45:27.653Z,1.90
2023-01-30T07:47:54.330Z,1.90
2023-01-30T07:50:21.075Z,2.00
2023-01-30T07:52:49.949Z,1.90
2023-01-30T07:55:16.917Z,1.90
2023-01-30T07:57:46.171Z,1.90
2023-01-30T08:00:13.342Z,2.00
2023-01-30T08:02:40.015Z,2.20
2023-01-30T08:05:08.963Z,2.10
2023-01-30T08:07:38.144Z,2.00
2023-01-30T08:10:07.203Z,1.90
2023-01-30T08:12:33.903Z,1.90
2023-01-30T08:15:00.646Z,2.10
2023-01-30T08:17:27.257Z,2.10
2023-01-30T08:19:53.963Z,2.00
2023-01-30T08:22:23.024Z,2.10
2023-01-30T08:24:52.001Z,2.10
2023-01-30T08:27:18.627Z,2.20
2023-01-30T08:29:47.782Z,2.20
2023-01-30T08:32:19.320Z,2.30
2023-01-30T08:34:47.080Z,2.30
2023-01-30T08:37:15.844Z,2.30
2023-01-30T08:39:42.472Z,2.20
2023-01-30T08:42:11.503Z,2.40
2023-01-30T08:44:38.132Z,2.40
2023-01-30T08:47:04.870Z,2.20
2023-01-30T08:49:31.534Z,2.10
2023-01-30T08:52:00.370Z,2.10
2023-01-30T08:54:33.374Z,2.10
2023-01-30T08:57:02.608Z,2.00
2023-01-30T08:59:29.208Z,2.10
2023-01-30T09:01:55.909Z,2.10
2023-01-30T09:04:24.942Z,2.20
2023-01-30T09:06:53.719Z,2.30
2023-01-30T09:09:20.388Z,2.40
2023-01-30T09:11:49.903Z,2.40
2023-01-30T09:14:19.983Z,2.30
2023-01-30T09:16:59.248Z,2.40
2023-01-30T09:19:28.751Z,2.40
2023-01-30T09:21:55.740Z,2.40
2023-01-30T09:24:30.363Z,2.40
2023-01-30T09:27:00.028Z,2.50
2023-01-30T09:29:27.441Z,2.60
2023-01-30T09:31:56.491Z,2.60
2023-01-30T09:34:28.622Z,2.60
2023-01-30T09:37:00.414Z,2.80
2023-01-30T09:39:27.469Z,2.80
2023-01-30T09:42:12.993Z,2.90
2023-01-30T09:44:58.495Z,3.00
2023-01-30T09:47:28.199Z,3.10
2023-01-30T09:49:54.763Z,3.10
2023-01-30T09:52:29.875Z,3.20
2023-01-30T09:55:02.515Z,3.10
2023-01-30T09:57:29.247Z,3.10
2023-01-30T10:00:04.133Z,3.20
2023-01-30T10:02:38.520Z,3.30
2023-01-30T10:05:07.979Z,3.30
2023-01-30T10:07:43.972Z,3.30
2023-01-30T10:10:20.332Z,3.30
2023-01-30T10:13:08.329Z,3.30
2023-01-30T10:15:39.928Z,3.40
2023-01-30T10:18:25.501Z,3.30
2023-01-30T10:20:56.173Z,3.40
2023-01-30T10:23:27.177Z,3.40
2023-01-30T10:25:59.971Z,3.50
2023-01-30T10:28:28.974Z,3.50
2023-01-30T10:30:59.148Z,3.50
2023-01-30T10:33:30.626Z,3.50
2023-01-30T10:36:23.525Z,3.40
2023-01-30T10:38:51.310Z,3.50
2023-01-30T10:41:31.114Z,3.50
2023-01-30T10:44:02.413Z,3.60
2023-01-30T10:46:29.009Z,3.70
2023-01-30T10:49:04.622Z,3.80
2023-01-30T10:51:37.399Z,3.90
2023-01-30T10:54:10.057Z,3.90
2023-01-30T10:56:36.711Z,3.90
2023-01-30T10:59:26.661Z,3.90
2023-01-30T11:01:56.443Z,4.00
2023-01-30T11:04:38.428Z,4.10
2023-01-30T11:07:05.369Z,4.10
2023-01-30T11:09:47.867Z,4.00
2023-01-30T11:12:14.930Z,4.00
2023-01-30T11:14:58.564Z,4.00
2023-01-30T11:17:29.791Z,4.00
2023-01-30T11:20:02.591Z,4.00
2023-01-30T11:22:36.845Z,4.00
2023-01-30T11:25:16.725Z,4.00
2023-01-30T11:27:44.593Z,4.00
2023-01-30T11:30:21.476Z,4.10
2023-01-30T11:32:51.782Z,4.00
2023-01-30T11:35:26.096Z,3.90
2023-01-30T11:37:53.442Z,3.80
2023-01-30T11:40:31.076Z,3.90
2023-01-30T11:43:05.824Z,3.80
2023-01-30T11:45:37.425Z,3.70
2023-01-30T11:48:07.887Z,3.60
2023-01-30T11:50:46.835Z,3.50
2023-01-30T11:53:16.428Z,3.50
2023-01-30T11:55:53.071Z,3.50
2023-01-30T11:58:32.812Z,3.50
2023-01-30T12:01:02.633Z,3.40
2023-01-30T12:03:30.277Z,3.40
2023-01-30T12:05:59.601Z,3.40
2023-01-30T12:08:41.112Z,3.30
2023-01-30T12:11:25.289Z,3.30
2023-01-30T12:13:53.059Z,3.40
2023-01-30T12:16:25.419Z,3.40
2023-01-30T12:19:01.510Z,3.30
2023-01-30T12:21:28.157Z,3.30
2023-01-30T12:24:10.116Z,3.30
2023-01-30T12:26:47.891Z,3.30
2023-01-30T12:29:26.196Z,3.40
2023-01-30T12:32:02.027Z,3.30
2023-01-30T12:34:31.219Z,3.40
2023-01-30T12:37:30.300Z,3.50
2023-01-30T12:39:57.378Z,3.50
2023-01-30T12:42:32.870Z,3.40
2023-01-30T12:45:11.709Z,3.40
2023-01-30T12:47:57.176Z,3.40
2023-01-30T12:50:35.943Z,3.40
2023-01-30T12:53:02.663Z,3.30
2023-01-30T12:55:41.515Z,3.40
2023-01-30T12:58:14.473Z,3.40
2023-01-30T13:00:59.500Z,3.40
2023-01-30T13:03:29.212Z,3.40
2023-01-30T13:06:05.400Z,3.30
2023-01-30T13:08:53.723Z,3.20
2023-01-30T13:11:44.043Z,3.20
2023-01-30T13:14:10.738Z,3.20
2023-01-30T13:16:43.207Z,3.20
2023-01-30T13:19:20.926Z,3.10
2023-01-30T13:22:13.331Z,3.10
2023-01-30T13:24:39.905Z,3.10
2023-01-30T13:27:11.980Z,3.00
2023-01-30T13:29:39.677Z,2.90
2023-01-30T13:32:28.862Z,2.90
2023-01-30T13:34:56.998Z,2.90
2023-01-30T13:37:23.747Z,3.10
2023-01-30T13:40:00.478Z,3.10
2023-01-30T13:42:40.634Z,3.20
2023-01-30T13:45:14.642Z,3.20
2023-01-30T13:47:50.611Z,3.20
2023-01-30T13:50:20.786Z,3.10
2023-01-30T13:52:54.566Z,3.00
2023-01-30T13:55:27.371Z,3.10
2023-01-30T13:57:56.452Z,3.20
2023-01-30T14:00:33.045Z,3.30
2023-01-30T14:03:05.609Z,3.10
2023-01-30T14:06:07.921Z,3.20
2023-01-30T14:08:46.287Z,3.10
2023-01-30T14:11:34.363Z,3.10
2023-01-30T14:14:08.640Z,3.20
2023-01-30T14:16:45.438Z,3.20
2023-01-30T14:19:29.404Z,3.20
2023-01-30T14:22:00.636Z,3.10
2023-01-30T14:24:27.794Z,3.00
2023-01-30T14:26:54.464Z,3.00
2023-01-30T14:29:42.873Z,3.00
2023-01-30T14:32:15.515Z,3.00
2023-01-30T14:34:43.282Z,3.00
2023-01-30T14:37:28.525Z,3.00
2023-01-30T14:39:56.386Z,3.00
2023-01-30T14:42:27.005Z,3.00
2023-01-30T14:44:59.527Z,3.00
2023-01-30T14:47:33.772Z,3.10
2023-01-30T14:50:20.762Z,3.10
2023-01-30T14:52:56.935Z,3.10
2023-01-30T14:55:29.453Z,3.10
2023-01-30T14:57:59.692Z,3.10
2023-01-30T15:00:32.372Z,3.10
2023-01-30T15:03:01.740Z,3.10
2023-01-30T15:05:33.769Z,3.10
2023-01-30T15:08:06.545Z,3.10
2023-01-30T15:10:33.319Z,3.10
2023-01-30T15:13:08.165Z,3.10
2023-01-30T15:15:47.764Z,3.10
2023-01-30T15:18:37.192Z,3.20
2023-01-30T15:21:06.019Z,3.20
2023-01-30T15:23:35.575Z,3.20
2023-01-30T15:26:18.539Z,3.20
2023-01-30T15:28:53.141Z,3.20
2023-01-30T15:31:26.396Z,3.20
2023-01-30T15:33:56.773Z,3.20
2023-01-30T15:36:33.761Z,3.20
2023-01-30T15:39:01.630Z,3.10
2023-01-30T15:41:32.824Z,3.10
2023-01-30T15:43:59.414Z,3.10
2023-01-30T15:46:32.262Z,3.10
2023-01-30T15:49:05.927Z,3.10
2023-01-30T15:51:35.038Z,3.10
2023-01-30T15:54:03.598Z,3.30
2023-01-30T15:56:33.661Z,3.40
2023-01-30T15:59:03.730Z,3.50
2023-01-30T16:01:32.968Z,3.50
2023-01-30T16:04:00.475Z,3.60
2023-01-30T16:06:34.844Z,3.50
2023-01-30T16:09:01.583Z,3.50
2023-01-30T16:11:32.708Z,3.50
2023-01-30T16:13:59.449Z,3.50
2023-01-30T16:16:31.529Z,3.50
2023-01-30T16:19:02.927Z,3.40
2023-01-30T16:21:36.487Z,3.30
2023-01-30T16:24:17.931Z,3.30
2023-01-30T16:27:02.708Z,3.40
2023-01-30T16:29:31.488Z,3.50
2023-01-30T16:32:00.872Z,3.40
2023-01-30T16:34:37.557Z,3.60
2023-01-30T16:37:07.796Z,3.60
2023-01-30T16:39:40.386Z,3.70
2023-01-30T16:42:37.084Z,3.90
2023-01-30T16:45:09.685Z,3.80
2023-01-30T16:47:37.605Z,3.70
2023-01-30T16:50:04.960Z,3.80
2023-01-30T16:52:36.916Z,3.80
2023-01-30T16:55:05.727Z,3.80
2023-01-30T16:57:44.774Z,3.80
2023-01-30T17:00:27.493Z,3.80
2023-01-30T17:02:58.379Z,3.70
2023-01-30T17:05:29.225Z,3.70
2023-01-30T17:07:56.717Z,3.80
2023-01-30T17:10:44.856Z,3.80
2023-01-30T17:13:32.406Z,3.70
2023-01-30T17:16:17.568Z,3.70
2023-01-30T17:18:47.859Z,3.60
2023-01-30T17:21:23.248Z,3.70
2023-01-30T17:24:05.765Z,3.70
2023-01-30T17:26:40.911Z,3.80
2023-01-30T17:29:23.089Z,3.80
2023-01-30T17:32:01.544Z,3.80
2023-01-30T17:34:28.949Z,3.70
2023-01-30T17:36:58.114Z,3.70
2023-01-30T17:39:37.739Z,3.70
2023-01-30T17:42:08.386Z,3.70
2023-01-30T17:44:39.965Z,3.60
2023-01-30T17:47:06.623Z,3.60
2023-01-30T17:49:33.324Z,3.50
2023-01-30T17:52:00.356Z,3.60
2023-01-30T17:54:27.341Z,3.50
2023-01-30T17:57:04.362Z,3.50
2023-01-30T17:59:33.545Z,3.50
2023-01-30T18:02:00.322Z,3.50
2023-01-30T18:04:29.575Z,3.50
2023-01-30T18:07:02.162Z,3.50
2023-01-30T18:09:31.812Z,3.50
2023-01-30T18:11:58.604Z,3.50
2023-01-30T18:14:27.628Z,3.50
2023-01-30T18:17:00.214Z,3.50
2023-01-30T18:19:31.556Z,3.50
2023-01-30T18:22:00.430Z,3.40
2023-01-30T18:24:27.078Z,3.50
2023-01-30T18:26:53.819Z,3.50
2023-01-30T18:29:20.670Z,3.50
2023-01-30T18:31:47.344Z,3.50
2023-01-30T18:34:16.558Z,3.50
2023-01-30T18:36:43.416Z,3.50
2023-01-30T18:39:14.715Z,3.50
2023-01-30T18:41:41.403Z,3.50
2023-01-30T18:44:08.280Z,3.40
2023-01-30T18:46:35.127Z,3.40
2023-01-30T18:49:01.931Z,3.40
2023-01-30T18:51:29.924Z,3.30
2023-01-30T18:53:59.278Z,3.40
2023-01-30T18:56:27.248Z,3.40
2023-01-30T18:58:57.749Z,3.40
2023-01-30T19:01:26.181Z,3.40
2023-01-30T19:03:58.816Z,3.40
2023-01-30T19:06:31.000Z,3.40
2023-01-30T19:08:58.035Z,3.40
2023-01-30T19:11:43.540Z,3.50
2023-01-30T19:14:10.823Z,3.50
2023-01-30T19:16:40.393Z,3.40
2023-01-30T19:19:09.898Z,3.40
2023-01-30T19:21:37.026Z,3.30
2023-01-30T19:24:06.507Z,3.30
2023-01-30T19:26:33.459Z,3.20
2023-01-30T19:29:02.843Z,3.20
2023-01-30T19:31:29.754Z,3.20
2023-01-30T19:34:00.646Z,3.10
2023-01-30T19:36:29.394Z,3.10
2023-01-30T19:38:59.317Z,3.10
2023-01-30T19:41:29.893Z,3.10
2023-01-30T19:43:59.865Z,3.10
2023-01-30T19:46:29.282Z,3.10
2023-01-30T19:48:56.015Z,3.10
2023-01-30T19:51:24.125Z,3.00
2023-01-30T19:53:56.977Z,3.10
2023-01-30T19:56:25.304Z,3.10
2023-01-30T19:58:55.045Z,3.20
2023-01-30T20:01:27.404Z,3.30
2023-01-30T20:03:56.233Z,3.30
2023-01-30T20:06:27.534Z,3.30
2023-01-30T20:08:55.416Z,3.40
2023-01-30T20:11:22.226Z,3.40
2023-01-30T20:13:49.535Z,3.30
2023-01-30T20:16:20.786Z,3.40
2023-01-30T20:18:48.814Z,3.50
2023-01-30T20:21:18.706Z,3.50
2023-01-30T20:23:48.622Z,3.40
2023-01-30T20:26:17.376Z,3.50
2023-01-30T20:28:44.324Z,3.50
2023-01-30T20:31:14.813Z,3.50
2023-01-30T20:33:43.798Z,3.50
2023-01-30T20:36:11.699Z,3.50
2023-01-30T20:38:41.592Z,3.50
2023-01-30T20:41:15.221Z,3.50
2023-01-30T20:43:44.912Z,3.50
2023-01-30T20:46:13.635Z,3.50
2023-01-30T20:48:40.914Z,3.50
2023-01-30T20:51:07.588Z,3.50
2023-01-30T20:56:47.529Z,3.50
2023-01-30T20:59:17.977Z,3.40
2023-01-30T21:01:44.822Z,3.50
2023-01-30T21:04:16.398Z,3.60
2023-01-30T21:06:47.102Z,3.60
2023-01-30T21:09:19.035Z,3.70
2023-01-30T21:11:48.545Z,3.70
2023-01-30T21:14:15.854Z,3.70
2023-01-30T21:16:45.214Z,3.70
2023-01-30T21:19:16.203Z,3.70
2023-01-30T21:21:50.421Z,3.70
2023-01-30T21:24:23.804Z,3.80
2023-01-30T21:26:50.881Z,3.80
2023-01-30T21:29:18.744Z,3.80
2023-01-30T21:31:45.722Z,3.90
2023-01-30T21:34:12.897Z,3.80
2023-01-30T21:36:40.331Z,3.80
2023-01-30T21:39:26.024Z,3.90
2023-01-30T21:41:54.985Z,3.90
2023-01-30T21:44:24.720Z,3.90
2023-01-30T21:46:53.770Z,4.10
2023-01-30T21:49:20.433Z,4.00
2023-01-30T21:51:48.159Z,3.90
2023-01-30T21:54:15.557Z,3.90
2023-01-30T21:56:44.763Z,3.80
2023-01-30T21:59:11.994Z,3.80
2023-01-30T22:01:39.371Z,3.70
2023-01-30T22:04:08.557Z,3.70
2023-01-30T22:06:36.404Z,3.80
2023-01-30T22:09:06.188Z,3.90
2023-01-30T22:11:34.682Z,4.00
2023-01-30T22:14:01.327Z,3.90
2023-01-30T22:16:28.703Z,3.80
2023-01-30T22:18:56.810Z,3.90
2023-01-30T22:21:24.623Z,3.90
2023-01-30T22:23:52.365Z,4.00
2023-01-30T22:26:22.228Z,4.00
2023-01-30T22:28:52.620Z,4.10
2023-01-30T22:31:22.852Z,4.00
2023-01-30T22:33:53.713Z,4.00
2023-01-30T22:36:23.504Z,4.00
2023-01-30T22:38:50.584Z,3.90
2023-01-30T22:41:19.140Z,3.90
2023-01-30T22:43:46.742Z,4.00
2023-01-30T22:46:16.281Z,4.00
2023-01-30T22:48:45.257Z,4.10
2023-01-30T22:51:18.446Z,4.10
2023-01-30T22:53:46.629Z,4.20
2023-01-30T22:56:17.598Z,4.10
2023-01-30T22:58:46.831Z,4.20
2023-01-30T23:01:18.711Z,4.10
2023-01-30T23:03:46.056Z,4.10
2023-01-30T23:06:15.894Z,4.10
2023-01-30T23:08:46.236Z,4.10
2023-01-30T23:11:16.395Z,4.10
2023-01-30T23:13:44.039Z,4.00
2023-01-30T23:16:14.025Z,3.80
2023-01-30T23:18:56.359Z,3.60
2023-01-30T23:21:26.202Z,3.60
2023-01-30T23:23:58.900Z,3.60
2023-01-30T23:26:27.036Z,3.50
2023-01-30T23:28:54.099Z,3.50
2023-01-30T23:31:23.961Z,3.40
2023-01-30T23:33:54.588Z,3.40
2023-01-30T23:36:24.190Z,3.50
2023-01-30T23:38:54.610Z,3.40
2023-01-30T23:41:26.029Z,3.30
2023-01-30T23:43:52.784Z,3.20
2023-01-30T23:46:19.600Z,3.20
2023-01-30T23:48:47.719Z,3.20
2023-01-30T23:51:17.241Z,3.10
2023-01-30T23:53:46.806Z,3.10
2023-01-30T23:56:14.229Z,3.10
2023-01-30T23:58:41.226Z,3.00
